sensor_id;sensor_type;location;lat;lon;timestamp;pressure;altitude;pressure_sealevel;temperature;humidity
69879;BME280;57161;43.136;24.706;2022-07-12T00:01:03;99496.97;;;19.03;44.23
69879;BME280;57161;43.136;24.706;2022-07-12T00:03:29;99483.41;;;18.82;44.35
69879;BME280;57161;43.136;24.706;2022-07-12T00:05:54;99494.75;;;18.92;44.28
69879;BME280;57161;43.136;24.706;2022-07-12T00:08:20;99497.72;;;18.94;44.28
69879;BME280;57161;43.136;24.706;2022-07-12T00:10:45;99485.78;;;18.86;44.29
69879;BME280;57161;43.136;24.706;2022-07-12T00:13:11;99460.75;;;18.63;44.42
69879;BME280;57161;43.136;24.706;2022-07-12T00:15:37;99499.66;;;18.92;44.24
69879;BME280;57161;43.136;24.706;2022-07-12T00:18:02;99485.38;;;18.89;44.45
69879;BME280;57161;43.136;24.706;2022-07-12T00:20:28;99510.25;;;18.91;44.37
69879;BME280;57161;43.136;24.706;2022-07-12T00:22:54;99481.31;;;18.83;44.58
69879;BME280;57161;43.136;24.706;2022-07-12T00:25:21;99443.31;;;18.57;44.54
69879;BME280;57161;43.136;24.706;2022-07-12T00:27:46;99473.72;;;18.76;44.50
69879;BME280;57161;43.136;24.706;2022-07-12T00:30:12;99491.91;;;18.82;44.68
69879;BME280;57161;43.136;24.706;2022-07-12T00:32:37;99477.44;;;18.69;44.80
69879;BME280;57161;43.136;24.706;2022-07-12T00:35:04;99478.63;;;18.66;44.66
69879;BME280;57161;43.136;24.706;2022-07-12T00:37:31;99478.63;;;18.66;44.80
69879;BME280;57161;43.136;24.706;2022-07-12T00:39:57;99460.88;;;18.55;44.75
69879;BME280;57161;43.136;24.706;2022-07-12T00:42:22;99476.41;;;18.64;44.62
69879;BME280;57161;43.136;24.706;2022-07-12T00:44:48;99488.47;;;18.65;45.03
69879;BME280;57161;43.136;24.706;2022-07-12T00:49:59;99490.84;;;18.68;44.84
69879;BME280;57161;43.136;24.706;2022-07-12T00:52:27;99492.03;;;18.65;45.18
69879;BME280;57161;43.136;24.706;2022-07-12T00:54:52;99462.34;;;18.47;45.14
69879;BME280;57161;43.136;24.706;2022-07-12T00:57:17;99464.28;;;18.44;45.01
69879;BME280;57161;43.136;24.706;2022-07-12T00:59:43;99479.03;;;18.52;45.12
69879;BME280;57161;43.136;24.706;2022-07-12T01:02:08;99472.03;;;18.44;45.31
69879;BME280;57161;43.136;24.706;2022-07-12T01:04:35;99477.25;;;18.47;45.25
69879;BME280;57161;43.136;24.706;2022-07-12T01:07:00;99470.53;;;18.43;45.20
69879;BME280;57161;43.136;24.706;2022-07-12T01:09:26;99466.81;;;18.40;45.11
69879;BME280;57161;43.136;24.706;2022-07-12T01:11:53;99467.84;;;18.35;45.11
69879;BME280;57161;43.136;24.706;2022-07-12T01:14:18;99489.84;;;18.27;47.37
69879;BME280;57161;43.136;24.706;2022-07-12T01:16:45;99484.59;;;18.14;48.49
69879;BME280;57161;43.136;24.706;2022-07-12T01:19:11;99471.16;;;17.95;49.92
69879;BME280;57161;43.136;24.706;2022-07-12T01:21:44;99442.34;;;17.43;50.80
69879;BME280;57161;43.136;24.706;2022-07-12T01:24:12;99480.16;;;17.57;51.93
69879;BME280;57161;43.136;24.706;2022-07-12T01:26:38;99468.75;;;17.37;52.37
69879;BME280;57161;43.136;24.706;2022-07-12T01:29:05;99461.00;;;17.11;53.27
69879;BME280;57161;43.136;24.706;2022-07-12T01:31:31;99448.31;;;17.02;53.61
69879;BME280;57161;43.136;24.706;2022-07-12T01:33:58;99453.56;;;16.89;53.89
69879;BME280;57161;43.136;24.706;2022-07-12T01:36:24;99461.69;;;16.85;54.49
69879;BME280;57161;43.136;24.706;2022-07-12T01:38:49;99471.59;;;16.93;54.38
69879;BME280;57161;43.136;24.706;2022-07-12T01:41:16;99484.94;;;16.93;54.35
69879;BME280;57161;43.136;24.706;2022-07-12T01:43:41;99453.25;;;16.67;55.00
69879;BME280;57161;43.136;24.706;2022-07-12T01:46:07;99468.25;;;16.70;54.96
69879;BME280;57161;43.136;24.706;2022-07-12T01:48:32;99443.59;;;16.53;55.06
69879;BME280;57161;43.136;24.706;2022-07-12T01:50:58;99440.75;;;16.36;55.57
69879;BME280;57161;43.136;24.706;2022-07-12T01:53:23;99467.16;;;16.48;55.92
69879;BME280;57161;43.136;24.706;2022-07-12T01:55:49;99470.44;;;16.37;56.14
69879;BME280;57161;43.136;24.706;2022-07-12T01:58:15;99481.38;;;16.33;56.27
69879;BME280;57161;43.136;24.706;2022-07-12T02:00:42;99481.44;;;16.25;56.57
69879;BME280;57161;43.136;24.706;2022-07-12T02:03:07;99450.88;;;15.97;57.03
69879;BME280;57161;43.136;24.706;2022-07-12T02:05:33;99446.94;;;15.92;57.31
69879;BME280;57161;43.136;24.706;2022-07-12T02:07:59;99438.97;;;15.81;57.40
69879;BME280;57161;43.136;24.706;2022-07-12T02:10:25;99479.06;;;15.97;57.67
69879;BME280;57161;43.136;24.706;2022-07-12T02:12:50;99466.28;;;15.96;57.78
69879;BME280;57161;43.136;24.706;2022-07-12T02:15:16;99461.88;;;15.85;57.99
69879;BME280;57161;43.136;24.706;2022-07-12T02:17:41;99470.78;;;15.99;57.61
69879;BME280;57161;43.136;24.706;2022-07-12T02:20:09;99474.84;;;16.05;57.24
69879;BME280;57161;43.136;24.706;2022-07-12T02:22:36;99463.66;;;15.98;57.17
69879;BME280;57161;43.136;24.706;2022-07-12T02:25:02;99477.34;;;16.01;57.06
69879;BME280;57161;43.136;24.706;2022-07-12T02:27:28;99479.44;;;15.93;57.19
69879;BME280;57161;43.136;24.706;2022-07-12T02:29:54;99464.22;;;15.71;57.62
69879;BME280;57161;43.136;24.706;2022-07-12T02:32:20;99484.28;;;15.75;58.06
69879;BME280;57161;43.136;24.706;2022-07-12T02:34:45;99482.59;;;15.72;58.07
69879;BME280;57161;43.136;24.706;2022-07-12T02:37:10;99444.47;;;15.39;58.14
69879;BME280;57161;43.136;24.706;2022-07-12T02:39:36;99489.03;;;15.65;57.92
69879;BME280;57161;43.136;24.706;2022-07-12T02:42:02;99493.47;;;15.76;57.88
69879;BME280;57161;43.136;24.706;2022-07-12T02:44:28;99474.97;;;15.65;57.68
69879;BME280;57161;43.136;24.706;2022-07-12T02:46:54;99463.31;;;15.61;57.43
69879;BME280;57161;43.136;24.706;2022-07-12T02:49:19;99456.75;;;15.58;57.28
69879;BME280;57161;43.136;24.706;2022-07-12T02:51:44;99476.63;;;15.68;57.33
69879;BME280;57161;43.136;24.706;2022-07-12T02:54:10;99478.47;;;15.73;57.42
69879;BME280;57161;43.136;24.706;2022-07-12T02:56:35;99499.81;;;15.84;56.97
69879;BME280;57161;43.136;24.706;2022-07-12T02:59:01;99486.50;;;15.77;57.05
69879;BME280;57161;43.136;24.706;2022-07-12T03:01:26;99510.03;;;15.72;57.64
69879;BME280;57161;43.136;24.706;2022-07-12T03:03:52;99488.88;;;15.55;58.24
69879;BME280;57161;43.136;24.706;2022-07-12T03:06:17;99502.25;;;15.47;58.57
69879;BME280;57161;43.136;24.706;2022-07-12T03:08:42;99497.72;;;15.52;58.41
69879;BME280;57161;43.136;24.706;2022-07-12T03:11:08;99505.59;;;15.53;58.81
69879;BME280;57161;43.136;24.706;2022-07-12T03:13:33;99507.63;;;15.60;58.60
69879;BME280;57161;43.136;24.706;2022-07-12T03:15:59;99502.56;;;15.67;58.46
69879;BME280;57161;43.136;24.706;2022-07-12T03:18:25;99492.81;;;15.60;58.45
69879;BME280;57161;43.136;24.706;2022-07-12T03:20:50;99488.31;;;15.57;58.40
69879;BME280;57161;43.136;24.706;2022-07-12T03:23:16;99502.94;;;15.63;58.32
69879;BME280;57161;43.136;24.706;2022-07-12T03:25:41;99495.81;;;15.62;58.63
69879;BME280;57161;43.136;24.706;2022-07-12T03:28:07;99507.03;;;15.70;58.70
69879;BME280;57161;43.136;24.706;2022-07-12T03:30:32;99505.53;;;15.69;58.57
69879;BME280;57161;43.136;24.706;2022-07-12T03:32:58;99512.84;;;15.72;58.59
69879;BME280;57161;43.136;24.706;2022-07-12T03:35:23;99512.44;;;15.75;58.56
69879;BME280;57161;43.136;24.706;2022-07-12T03:37:50;99516.00;;;15.76;58.44
69879;BME280;57161;43.136;24.706;2022-07-12T03:40:18;99516.75;;;15.76;58.52
69879;BME280;57161;43.136;24.706;2022-07-12T03:42:44;99512.66;;;15.70;58.88
69879;BME280;57161;43.136;24.706;2022-07-12T03:45:11;99516.00;;;15.76;58.56
69879;BME280;57161;43.136;24.706;2022-07-12T03:47:37;99506.63;;;15.73;58.46
69879;BME280;57161;43.136;24.706;2022-07-12T03:50:04;99510.03;;;15.72;58.34
69879;BME280;57161;43.136;24.706;2022-07-12T03:52:31;99521.72;;;15.93;58.32
69879;BME280;57161;43.136;24.706;2022-07-12T03:54:57;99513.78;;;15.99;58.11
69879;BME280;57161;43.136;24.706;2022-07-12T03:57:22;99502.13;;;16.03;57.53
69879;BME280;57161;43.136;24.706;2022-07-12T03:59:50;99510.00;;;16.04;57.79
69879;BME280;57161;43.136;24.706;2022-07-12T04:02:15;99523.16;;;16.27;57.90
69879;BME280;57161;43.136;24.706;2022-07-12T04:04:41;99535.25;;;16.44;57.24
69879;BME280;57161;43.136;24.706;2022-07-12T04:07:07;99509.78;;;16.52;56.91
69879;BME280;57161;43.136;24.706;2022-07-12T04:09:32;99517.53;;;16.69;55.23
69879;BME280;57161;43.136;24.706;2022-07-12T04:11:57;99502.69;;;16.86;51.91
69879;BME280;57161;43.136;24.706;2022-07-12T04:14:23;99521.78;;;17.29;50.97
69879;BME280;57161;43.136;24.706;2022-07-12T04:16:49;99529.69;;;17.58;50.31
69879;BME280;57161;43.136;24.706;2022-07-12T04:19:14;99504.00;;;17.63;49.01
69879;BME280;57161;43.136;24.706;2022-07-12T04:21:39;99529.28;;;17.88;49.15
69879;BME280;57161;43.136;24.706;2022-07-12T04:24:05;99516.38;;;17.95;48.75
69879;BME280;57161;43.136;24.706;2022-07-12T04:26:31;99522.69;;;18.13;48.26
69879;BME280;57161;43.136;24.706;2022-07-12T04:28:56;99530.63;;;18.24;47.93
69879;BME280;57161;43.136;24.706;2022-07-12T04:31:23;99541.81;;;18.32;47.85
69879;BME280;57161;43.136;24.706;2022-07-12T04:33:48;99536.19;;;18.41;47.59
69879;BME280;57161;43.136;24.706;2022-07-12T04:36:14;99537.69;;;18.42;47.48
69879;BME280;57161;43.136;24.706;2022-07-12T04:38:39;99554.13;;;18.63;47.37
69879;BME280;57161;43.136;24.706;2022-07-12T04:41:05;99540.56;;;18.62;46.61
69879;BME280;57161;43.136;24.706;2022-07-12T04:43:30;99540.75;;;18.64;46.22
69879;BME280;57161;43.136;24.706;2022-07-12T04:45:56;99544.34;;;18.74;46.26
69879;BME280;57161;43.136;24.706;2022-07-12T04:48:21;99556.13;;;18.99;46.38
69879;BME280;57161;43.136;24.706;2022-07-12T04:50:47;99549.28;;;19.02;45.91
69879;BME280;57161;43.136;24.706;2022-07-12T04:53:12;99546.31;;;19.10;45.66
69879;BME280;57161;43.136;24.706;2022-07-12T04:55:38;99523.50;;;19.08;45.44
69879;BME280;57161;43.136;24.706;2022-07-12T04:58:03;99536.91;;;19.27;45.37
69879;BME280;57161;43.136;24.706;2022-07-12T05:00:31;99549.56;;;19.35;45.04
69879;BME280;57161;43.136;24.706;2022-07-12T05:02:57;99551.97;;;19.39;44.75
69879;BME280;57161;43.136;24.706;2022-07-12T05:05:22;99543.63;;;19.31;44.76
69879;BME280;57161;43.136;24.706;2022-07-12T05:07:48;99546.00;;;19.44;44.76
69879;BME280;57161;43.136;24.706;2022-07-12T05:10:13;99552.41;;;19.45;44.60
69879;BME280;57161;43.136;24.706;2022-07-12T05:12:39;99565.69;;;19.62;44.68
69879;BME280;57161;43.136;24.706;2022-07-12T05:15:05;99570.75;;;19.63;44.81
69879;BME280;57161;43.136;24.706;2022-07-12T05:17:30;99554.78;;;19.68;44.61
69879;BME280;57161;43.136;24.706;2022-07-12T05:19:56;99542.53;;;19.75;44.66
69879;BME280;57161;43.136;24.706;2022-07-12T05:22:21;99546.97;;;19.88;43.47
69879;BME280;57161;43.136;24.706;2022-07-12T05:24:47;99555.91;;;19.94;44.51
69879;BME280;57161;43.136;24.706;2022-07-12T05:27:12;99546.78;;;20.05;43.55
69879;BME280;57161;43.136;24.706;2022-07-12T05:29:38;99554.50;;;20.14;43.46
69879;BME280;57161;43.136;24.706;2022-07-12T05:32:04;99557.94;;;20.13;43.93
69879;BME280;57161;43.136;24.706;2022-07-12T05:34:30;99567.09;;;20.42;43.31
69879;BME280;57161;43.136;24.706;2022-07-12T05:36:56;99564.56;;;20.36;43.96
69879;BME280;57161;43.136;24.706;2022-07-12T05:39:21;99554.25;;;20.41;43.59
69879;BME280;57161;43.136;24.706;2022-07-12T05:41:47;99561.69;;;20.46;43.71
69879;BME280;57161;43.136;24.706;2022-07-12T05:44:13;99554.63;;;20.57;43.18
69879;BME280;57161;43.136;24.706;2022-07-12T05:46:38;99568.22;;;20.58;43.50
69879;BME280;57161;43.136;24.706;2022-07-12T05:49:06;99566.69;;;20.67;43.37
69879;BME280;57161;43.136;24.706;2022-07-12T05:51:31;99549.13;;;20.49;42.52
69879;BME280;57161;43.136;24.706;2022-07-12T05:54:15;99572.53;;;20.59;42.39
69879;BME280;57161;43.136;24.706;2022-07-12T05:56:41;99547.47;;;20.56;42.17
69879;BME280;57161;43.136;24.706;2022-07-12T05:59:06;99565.38;;;20.58;42.55
69879;BME280;57161;43.136;24.706;2022-07-12T06:01:32;99556.81;;;20.68;42.25
69879;BME280;57161;43.136;24.706;2022-07-12T06:03:57;99559.25;;;20.83;42.02
69879;BME280;57161;43.136;24.706;2022-07-12T06:06:23;99567.94;;;20.97;41.75
69879;BME280;57161;43.136;24.706;2022-07-12T06:08:48;99555.19;;;20.86;42.37
69879;BME280;57161;43.136;24.706;2022-07-12T06:11:13;99573.44;;;21.05;41.92
69879;BME280;57161;43.136;24.706;2022-07-12T06:13:39;99526.66;;;20.84;42.15
69879;BME280;57161;43.136;24.706;2022-07-12T06:16:04;99520.28;;;20.74;42.25
69879;BME280;57161;43.136;24.706;2022-07-12T06:18:35;99543.28;;;21.00;41.73
69879;BME280;57161;43.136;24.706;2022-07-12T06:21:01;99512.59;;;20.86;41.93
69879;BME280;57161;43.136;24.706;2022-07-12T06:23:26;99545.78;;;21.05;41.67
69879;BME280;57161;43.136;24.706;2022-07-12T06:25:52;99555.13;;;21.17;41.82
69879;BME280;57161;43.136;24.706;2022-07-12T06:28:17;99543.38;;;21.23;41.84
69879;BME280;57161;43.136;24.706;2022-07-12T06:30:43;99565.03;;;21.49;41.35
69879;BME280;57161;43.136;24.706;2022-07-12T06:33:08;99571.53;;;21.73;41.32
69879;BME280;57161;43.136;24.706;2022-07-12T06:35:34;99558.53;;;21.70;40.62
69879;BME280;57161;43.136;24.706;2022-07-12T06:37:59;99575.84;;;21.74;40.98
69879;BME280;57161;43.136;24.706;2022-07-12T06:40:25;99564.81;;;21.57;40.84
69879;BME280;57161;43.136;24.706;2022-07-12T06:42:50;99558.75;;;21.63;40.99
69879;BME280;57161;43.136;24.706;2022-07-12T06:45:16;99570.78;;;21.73;40.32
69879;BME280;57161;43.136;24.706;2022-07-12T06:47:42;99543.88;;;21.85;40.67
69879;BME280;57161;43.136;24.706;2022-07-12T06:50:07;99551.41;;;21.81;40.92
69879;BME280;57161;43.136;24.706;2022-07-12T06:52:33;99550.03;;;21.94;40.84
69879;BME280;57161;43.136;24.706;2022-07-12T06:55:00;99540.28;;;21.85;40.18
69879;BME280;57161;43.136;24.706;2022-07-12T06:57:25;99555.00;;;21.81;40.45
69879;BME280;57161;43.136;24.706;2022-07-12T06:59:56;99577.25;;;21.85;40.61
69879;BME280;57161;43.136;24.706;2022-07-12T07:02:22;99555.25;;;21.97;40.99
69879;BME280;57161;43.136;24.706;2022-07-12T07:04:47;99558.22;;;21.99;39.97
69879;BME280;57161;43.136;24.706;2022-07-12T07:07:13;99564.63;;;21.88;40.46
69879;BME280;57161;43.136;24.706;2022-07-12T07:09:38;99565.28;;;21.98;40.56
69879;BME280;57161;43.136;24.706;2022-07-12T07:12:04;99555.97;;;21.86;41.05
69879;BME280;57161;43.136;24.706;2022-07-12T07:14:30;99583.63;;;22.19;41.58
69879;BME280;57161;43.136;24.706;2022-07-12T07:16:55;99578.56;;;22.29;40.13
69879;BME280;57161;43.136;24.706;2022-07-12T07:19:21;99550.91;;;21.96;39.85
69879;BME280;57161;43.136;24.706;2022-07-12T07:21:49;99588.00;;;22.31;40.14
69879;BME280;57161;43.136;24.706;2022-07-12T07:24:15;99577.09;;;22.39;39.45
69879;BME280;57161;43.136;24.706;2022-07-12T07:26:41;99568.03;;;22.20;40.14
69879;BME280;57161;43.136;24.706;2022-07-12T07:29:06;99544.41;;;22.17;39.39
69879;BME280;57161;43.136;24.706;2022-07-12T07:31:50;99572.88;;;22.40;39.40
69879;BME280;57161;43.136;24.706;2022-07-12T07:34:15;99564.72;;;22.46;39.83
69879;BME280;57161;43.136;24.706;2022-07-12T07:36:41;99569.75;;;22.71;39.79
69879;BME280;57161;43.136;24.706;2022-07-12T07:39:06;99580.28;;;22.81;38.97
69879;BME280;57161;43.136;24.706;2022-07-12T07:41:32;99564.81;;;22.60;39.04
69879;BME280;57161;43.136;24.706;2022-07-12T07:43:57;99585.38;;;22.59;39.27
69879;BME280;57161;43.136;24.706;2022-07-12T07:46:23;99575.34;;;22.69;39.56
69879;BME280;57161;43.136;24.706;2022-07-12T07:48:48;99548.09;;;22.66;39.53
69879;BME280;57161;43.136;24.706;2022-07-12T07:51:13;99580.28;;;22.92;38.97
69879;BME280;57161;43.136;24.706;2022-07-12T07:53:39;99572.97;;;23.01;38.89
69879;BME280;57161;43.136;24.706;2022-07-12T07:56:05;99570.56;;;23.09;39.35
69879;BME280;57161;43.136;24.706;2022-07-12T07:58:30;99569.19;;;23.10;38.52
69879;BME280;57161;43.136;24.706;2022-07-12T08:00:56;99560.66;;;23.10;38.93
69879;BME280;57161;43.136;24.706;2022-07-12T08:03:21;99557.50;;;23.29;37.97
69879;BME280;57161;43.136;24.706;2022-07-12T08:05:47;99555.53;;;23.57;38.10
69879;BME280;57161;43.136;24.706;2022-07-12T08:08:13;99572.13;;;23.86;37.65
69879;BME280;57161;43.136;24.706;2022-07-12T08:10:39;99576.94;;;24.09;36.49
69879;BME280;57161;43.136;24.706;2022-07-12T08:13:04;99571.84;;;24.08;35.87
69879;BME280;57161;43.136;24.706;2022-07-12T08:15:30;99559.38;;;24.01;35.93
69879;BME280;57161;43.136;24.706;2022-07-12T08:17:56;99557.56;;;24.08;35.35
69879;BME280;57161;43.136;24.706;2022-07-12T08:20:23;99560.66;;;24.12;35.75
69879;BME280;57161;43.136;24.706;2022-07-12T08:22:49;99558.13;;;24.18;35.51
69879;BME280;57161;43.136;24.706;2022-07-12T08:25:15;99539.72;;;24.07;35.16
69879;BME280;57161;43.136;24.706;2022-07-12T08:27:41;99543.69;;;23.88;35.83
69879;BME280;57161;43.136;24.706;2022-07-12T08:30:07;99563.66;;;23.88;35.73
69879;BME280;57161;43.136;24.706;2022-07-12T08:32:33;99555.78;;;24.01;35.52
69879;BME280;57161;43.136;24.706;2022-07-12T08:34:58;99499.00;;;23.79;35.61
69879;BME280;57161;43.136;24.706;2022-07-12T08:37:23;99526.16;;;23.80;35.84
69879;BME280;57161;43.136;24.706;2022-07-12T08:39:49;99548.50;;;23.72;36.78
69879;BME280;57161;43.136;24.706;2022-07-12T08:42:16;99536.31;;;23.97;35.58
69879;BME280;57161;43.136;24.706;2022-07-12T08:44:42;99553.50;;;24.38;35.03
69879;BME280;57161;43.136;24.706;2022-07-12T08:47:09;99547.28;;;24.55;34.44
69879;BME280;57161;43.136;24.706;2022-07-12T08:49:37;99550.38;;;24.73;33.28
69879;BME280;57161;43.136;24.706;2022-07-12T08:52:25;99547.81;;;24.79;33.76
69879;BME280;57161;43.136;24.706;2022-07-12T08:54:51;99545.56;;;24.92;33.35
69879;BME280;57161;43.136;24.706;2022-07-12T08:57:31;99541.44;;;24.95;32.39
69879;BME280;57161;43.136;24.706;2022-07-12T09:00:00;99521.75;;;24.87;32.61
69879;BME280;57161;43.136;24.706;2022-07-12T09:02:26;99538.56;;;24.95;32.53
69879;BME280;57161;43.136;24.706;2022-07-12T09:05:08;99547.06;;;24.93;33.27
69879;BME280;57161;43.136;24.706;2022-07-12T09:07:37;99550.22;;;25.12;32.39
69879;BME280;57161;43.136;24.706;2022-07-12T09:10:12;99545.38;;;25.31;32.17
69879;BME280;57161;43.136;24.706;2022-07-12T09:12:38;99538.78;;;25.12;31.71
69879;BME280;57161;43.136;24.706;2022-07-12T09:17:46;99535.75;;;24.67;33.17
69879;BME280;57161;43.136;24.706;2022-07-12T09:20:11;99535.09;;;24.69;32.98
69879;BME280;57161;43.136;24.706;2022-07-12T09:22:47;99515.84;;;24.83;33.03
69879;BME280;57161;43.136;24.706;2022-07-12T09:25:16;99523.53;;;25.08;31.40
69879;BME280;57161;43.136;24.706;2022-07-12T09:27:53;99521.63;;;25.12;32.51
69879;BME280;57161;43.136;24.706;2022-07-12T09:30:20;99533.06;;;24.85;32.35
69879;BME280;57161;43.136;24.706;2022-07-12T09:32:54;99535.00;;;24.53;32.66
69879;BME280;57161;43.136;24.706;2022-07-12T09:35:40;99530.03;;;24.26;32.79
69879;BME280;57161;43.136;24.706;2022-07-12T09:38:25;99531.53;;;24.54;32.96
69879;BME280;57161;43.136;24.706;2022-07-12T09:40:51;99512.44;;;24.87;32.80
69879;BME280;57161;43.136;24.706;2022-07-12T09:43:18;99508.38;;;25.05;33.26
69879;BME280;57161;43.136;24.706;2022-07-12T09:45:46;99523.38;;;25.20;32.67
69879;BME280;57161;43.136;24.706;2022-07-12T09:48:12;99521.00;;;24.87;32.47
69879;BME280;57161;43.136;24.706;2022-07-12T09:50:38;99527.59;;;24.75;32.91
69879;BME280;57161;43.136;24.706;2022-07-12T09:53:05;99505.50;;;24.76;32.96
69879;BME280;57161;43.136;24.706;2022-07-12T09:55:32;99520.84;;;25.26;33.29
69879;BME280;57161;43.136;24.706;2022-07-12T09:58:00;99506.16;;;25.63;30.23
69879;BME280;57161;43.136;24.706;2022-07-12T10:00:27;99475.72;;;25.69;30.76
69879;BME280;57161;43.136;24.706;2022-07-12T10:02:53;99511.56;;;25.86;30.72
69879;BME280;57161;43.136;24.706;2022-07-12T10:05:21;99496.53;;;25.40;30.29
69879;BME280;57161;43.136;24.706;2022-07-12T10:07:49;99521.16;;;25.18;30.91
69879;BME280;57161;43.136;24.706;2022-07-12T10:10:16;99517.81;;;25.08;31.02
69879;BME280;57161;43.136;24.706;2022-07-12T10:12:42;99518.16;;;25.00;30.53
69879;BME280;57161;43.136;24.706;2022-07-12T10:15:17;99524.88;;;25.21;30.79
69879;BME280;57161;43.136;24.706;2022-07-12T10:17:54;99513.97;;;25.47;30.82
69879;BME280;57161;43.136;24.706;2022-07-12T10:20:22;99506.38;;;25.37;30.53
69879;BME280;57161;43.136;24.706;2022-07-12T10:22:49;99502.84;;;25.23;30.41
69879;BME280;57161;43.136;24.706;2022-07-12T10:25:41;99514.91;;;25.22;30.26
69879;BME280;57161;43.136;24.706;2022-07-12T10:28:06;99504.47;;;25.42;30.45
69879;BME280;57161;43.136;24.706;2022-07-12T10:30:41;99503.84;;;25.59;29.36
69879;BME280;57161;43.136;24.706;2022-07-12T10:33:15;99503.44;;;25.81;28.97
69879;BME280;57161;43.136;24.706;2022-07-12T10:36:00;99504.44;;;26.19;28.79
69879;BME280;57161;43.136;24.706;2022-07-12T10:38:27;99516.38;;;25.97;29.07
69879;BME280;57161;43.136;24.706;2022-07-12T10:40:53;99488.13;;;25.74;29.12
69879;BME280;57161;43.136;24.706;2022-07-12T10:43:26;99498.28;;;25.93;30.03
69879;BME280;57161;43.136;24.706;2022-07-12T10:46:24;99507.69;;;25.80;30.69
69879;BME280;57161;43.136;24.706;2022-07-12T10:48:51;99520.66;;;25.37;30.96
69879;BME280;57161;43.136;24.706;2022-07-12T10:51:18;99514.44;;;24.98;31.16
69879;BME280;57161;43.136;24.706;2022-07-12T10:53:48;99508.06;;;24.99;31.71
69879;BME280;57161;43.136;24.706;2022-07-12T10:56:22;99518.94;;;25.17;30.89
69879;BME280;57161;43.136;24.706;2022-07-12T10:58:54;99512.34;;;24.84;31.18
69879;BME280;57161;43.136;24.706;2022-07-12T11:01:27;99512.88;;;24.81;31.24
69879;BME280;57161;43.136;24.706;2022-07-12T11:04:08;99510.13;;;24.83;30.68
69879;BME280;57161;43.136;24.706;2022-07-12T11:06:37;99511.38;;;24.94;31.06
69879;BME280;57161;43.136;24.706;2022-07-12T11:09:05;99509.41;;;25.26;30.80
69879;BME280;57161;43.136;24.706;2022-07-12T11:11:41;99487.72;;;25.36;30.50
69879;BME280;57161;43.136;24.706;2022-07-12T11:14:08;99516.69;;;25.29;30.57
69879;BME280;57161;43.136;24.706;2022-07-12T11:16:34;99498.97;;;25.03;30.80
69879;BME280;57161;43.136;24.706;2022-07-12T11:18:59;99498.94;;;25.17;30.79
69879;BME280;57161;43.136;24.706;2022-07-12T11:21:26;99527.13;;;25.38;30.19
69879;BME280;57161;43.136;24.706;2022-07-12T11:23:52;99526.81;;;25.61;29.71
69879;BME280;57161;43.136;24.706;2022-07-12T11:26:18;99486.59;;;25.57;29.62
69879;BME280;57161;43.136;24.706;2022-07-12T11:28:44;99519.31;;;25.99;29.76
69879;BME280;57161;43.136;24.706;2022-07-12T11:31:11;99518.13;;;26.36;29.52
69879;BME280;57161;43.136;24.706;2022-07-12T11:33:42;99511.59;;;26.67;28.77
69879;BME280;57161;43.136;24.706;2022-07-12T11:36:09;99490.91;;;26.86;29.37
69879;BME280;57161;43.136;24.706;2022-07-12T11:38:37;99502.47;;;26.88;29.12
69879;BME280;57161;43.136;24.706;2022-07-12T11:41:04;99477.41;;;26.89;28.59
69879;BME280;57161;43.136;24.706;2022-07-12T11:43:31;99508.56;;;27.14;28.54
69879;BME280;57161;43.136;24.706;2022-07-12T11:45:58;99512.75;;;27.47;28.36
69879;BME280;57161;43.136;24.706;2022-07-12T11:48:24;99500.88;;;27.37;28.57
69879;BME280;57161;43.136;24.706;2022-07-12T11:50:54;99513.22;;;27.59;28.85
69879;BME280;57161;43.136;24.706;2022-07-12T11:53:21;99514.94;;;27.84;27.73
69879;BME280;57161;43.136;24.706;2022-07-12T11:55:49;99513.56;;;27.49;28.16
69879;BME280;57161;43.136;24.706;2022-07-12T11:58:15;99511.13;;;27.24;28.44
69879;BME280;57161;43.136;24.706;2022-07-12T12:00:42;99505.47;;;27.08;29.21
69879;BME280;57161;43.136;24.706;2022-07-12T12:03:08;99521.50;;;27.33;29.04
69879;BME280;57161;43.136;24.706;2022-07-12T12:05:34;99499.16;;;27.30;29.22
69879;BME280;57161;43.136;24.706;2022-07-12T12:08:01;99508.66;;;27.34;28.42
69879;BME280;57161;43.136;24.706;2022-07-12T12:10:27;99491.69;;;27.23;28.52
69879;BME280;57161;43.136;24.706;2022-07-12T12:12:55;99499.97;;;27.14;28.78
69879;BME280;57161;43.136;24.706;2022-07-12T12:15:28;99493.94;;;26.90;28.80
69879;BME280;57161;43.136;24.706;2022-07-12T12:18:01;99499.81;;;26.77;28.97
69879;BME280;57161;43.136;24.706;2022-07-12T12:20:35;99506.69;;;27.21;28.82
69879;BME280;57161;43.136;24.706;2022-07-12T12:23:02;99491.84;;;27.27;28.94
69879;BME280;57161;43.136;24.706;2022-07-12T12:25:29;99476.28;;;27.67;28.53
69879;BME280;57161;43.136;24.706;2022-07-12T12:27:56;99463.56;;;27.55;27.39
69879;BME280;57161;43.136;24.706;2022-07-12T12:30:23;99494.31;;;27.52;28.19
69879;BME280;57161;43.136;24.706;2022-07-12T12:32:53;99479.66;;;27.26;27.26
69879;BME280;57161;43.136;24.706;2022-07-12T12:35:22;99496.91;;;27.64;27.29
69879;BME280;57161;43.136;24.706;2022-07-12T12:37:56;99472.31;;;27.96;27.85
69879;BME280;57161;43.136;24.706;2022-07-12T12:40:24;99484.97;;;27.16;28.00
69879;BME280;57161;43.136;24.706;2022-07-12T12:42:51;99487.88;;;26.82;28.19
69879;BME280;57161;43.136;24.706;2022-07-12T12:45:22;99471.25;;;26.97;28.44
69879;BME280;57161;43.136;24.706;2022-07-12T12:47:55;99486.34;;;27.50;28.01
69879;BME280;57161;43.136;24.706;2022-07-12T12:50:46;99481.78;;;27.08;27.80
69879;BME280;57161;43.136;24.706;2022-07-12T12:53:14;99484.81;;;27.12;28.14
69879;BME280;57161;43.136;24.706;2022-07-12T12:55:41;99469.56;;;27.25;27.88